KAEG Airport (Double Eagle Ii) Information

FAA: AEG - ICAO: KAEG

KAEG Airport Location

State New Mexico
County Bernalillo
City Albuquerque
KAEG Airport is 7 miles northwest of Albuquerque, NM.
Latitude 35-08-41.6740N
Longitude 106-47-42.6260W
Elevation 5,837ft

KAEG Airport METARs

METAR KAEG 121447Z 02005KT 10SM CLR 21/14 A3036
Altimeter 30.36"
Temperature 21.0°C (69.8°F)
Wind 20° at 5KT
Clouds Skies are clear.
Visibility 10.0mi
Time observed: 2022-08-12T14:47:00Z

KAEG Airport Details

Status Operational
Activation August 1983
Ownership Public
Usage Public
Chart ALBUQUERQUE
ATC on-site Yes
Beacon schedule sunset-sunrise
Beacon color clear green

KAEG Airport Contacts

Owner CITY OF ALBUQUERQUE
Owner address PO BOX 9948, ALBUQUERQUE, NM 87119
Owner phone (505) 244-7888
Manager DON HAMILTON
Manager address 218A SUNSET RD, WILLINGBORO, NJ 08046
Manager phone 609-835-3200

KAEG Airport (Double Eagle Ii) Radio Frequencies

KAEG (Airport) Radio Frequencies

UNICOM N/A
Common traffic advisory frequency (CTAF) 120.15